Time;durP1;ratioP1;P1;durP2;ratioP2;P2;SDS_P1;SDS_P2;PMS_P1;PMS_P2;Temp;Humidity;BMP_temperature;BMP_pressure;BME280_temperature;BME280_humidity;BME280_pressure;Samples;Min_cycle;Max_cycle;Signal;HPM_P1;HPM_P2
2022/03/08 00:01:28;;;;;;;5.55;3.20;;;1.60;99.90;;;;;;2146130;66;20178;-67
2022/03/08 00:04:14;;;;;;;7.80;3.78;;;1.50;99.90;;;;;;2155734;66;20419;-67
2022/03/08 00:06:58;;;;;;;;;;;1.50;99.90;;;;;;2146175;66;20894;-66
2022/03/08 00:09:40;;;;;;;6.30;3.38;;;1.50;99.90;;;;;;2138785;67;20137;-68
2022/03/08 00:12:26;;;;;;;5.22;3.40;;;1.50;99.90;;;;;;2152127;66;20322;-67
2022/03/08 00:15:11;;;;;;;6.97;3.97;;;1.50;99.90;;;;;;2153771;66;20220;-67
2022/03/08 00:17:56;;;;;;;5.00;3.53;;;1.40;99.90;;;;;;2153227;66;20450;-66
2022/03/08 00:20:40;;;;;;;7.25;4.03;;;1.50;99.90;;;;;;2149518;66;20402;-68
2022/03/08 00:23:22;;;;;;;6.40;4.03;;;1.50;99.90;;;;;;2150771;66;20638;-67
2022/03/08 00:26:05;;;;;;;5.43;3.90;;;1.40;99.90;;;;;;2151163;66;20289;-66
2022/03/08 00:28:47;;;;;;;5.95;3.47;;;1.40;99.90;;;;;;2140049;66;20300;-67
2022/03/08 00:31:29;;;;;;;4.85;3.55;;;1.40;99.90;;;;;;2153982;66;20832;-68
2022/03/08 00:34:11;;;;;;;7.15;3.88;;;1.40;99.90;;;;;;2146516;66;20340;-67
2022/03/08 00:36:53;;;;;;;7.47;4.28;;;1.40;99.90;;;;;;2133164;67;20257;-67
2022/03/08 00:39:37;;;;;;;5.00;3.78;;;1.40;99.90;;;;;;2128690;67;20663;-67
2022/03/08 00:42:20;;;;;;;7.10;3.78;;;1.30;99.90;;;;;;2112089;67;20215;-66
2022/03/08 00:45:03;;;;;;;8.18;4.63;;;1.20;99.90;;;;;;2124622;67;20728;-68
2022/03/08 00:47:45;;;;;;;7.82;3.90;;;1.20;99.90;;;;;;2115993;67;20186;-67
2022/03/08 00:50:28;;;;;;;5.13;3.63;;;1.20;99.90;;;;;;2119438;67;20407;-67
2022/03/08 00:53:13;;;;;;;5.35;3.95;;;1.10;99.90;;;;;;2122188;67;20375;-66
2022/03/08 00:55:54;;;;;;;5.45;3.70;;;1.10;99.90;;;;;;2120606;67;20199;-66
2022/03/08 00:58:36;;;;;;;6.93;4.10;;;1.10;99.90;;;;;;2116898;67;20852;-66
2022/03/08 01:01:18;;;;;;;6.82;4.03;;;1.00;99.90;;;;;;2118193;67;20310;-67
2022/03/08 01:04:00;;;;;;;5.95;4.18;;;1.00;99.90;;;;;;2118381;67;20870;-67
2022/03/08 01:06:42;;;;;;;6.80;4.60;;;0.90;99.90;;;;;;2149937;66;20810;-67
2022/03/08 01:09:24;;;;;;;6.72;5.00;;;0.90;99.90;;;;;;2152367;66;20247;-70
2022/03/08 01:12:09;;;;;;;8.73;5.38;;;0.90;99.90;;;;;;2153101;66;20191;-69
2022/03/08 01:14:50;;;;;;;7.85;4.68;;;0.90;99.90;;;;;;2171034;65;20176;-67
2022/03/08 01:17:32;;;;;;;7.13;4.75;;;0.90;99.90;;;;;;2169270;66;20321;-67
2022/03/08 01:20:15;;;;;;;6.32;3.90;;;0.80;99.90;;;;;;2162392;66;20384;-65
2022/03/08 01:22:59;;;;;;;7.80;5.30;;;0.80;99.90;;;;;;2164153;66;20336;-66
2022/03/08 01:25:44;;;;;;;8.02;5.18;;;0.80;99.90;;;;;;2161368;66;20177;-68
2022/03/08 01:28:26;;;;;;;7.43;5.32;;;0.80;99.90;;;;;;2168826;66;20231;-67
2022/03/08 01:31:07;;;;;;;6.72;4.95;;;1.00;99.90;;;;;;2163785;66;22595;-67
2022/03/08 01:33:54;;;;;;;8.80;5.35;;;0.80;99.90;;;;;;2176365;65;20345;-66
2022/03/08 01:36:36;;;;;;;11.07;5.80;;;0.80;99.90;;;;;;2183715;65;20246;-66
2022/03/08 01:39:19;;;;;;;8.65;5.40;;;0.80;99.90;;;;;;2168984;66;20301;-65
2022/03/08 01:42:11;;;;;;;6.63;5.15;;;0.80;99.90;;;;;;2156821;66;20289;-66
2022/03/08 01:44:53;;;;;;;8.38;5.20;;;0.80;99.90;;;;;;2156157;66;20332;-66
2022/03/08 01:47:35;;;;;;;7.85;5.13;;;0.80;99.90;;;;;;2154562;66;20306;-67
2022/03/08 01:50:17;;;;;;;10.48;5.72;;;0.70;99.90;;;;;;2168399;65;20248;-66
2022/03/08 01:52:59;;;;;;;8.13;5.53;;;0.70;99.90;;;;;;2147577;66;20174;-67
2022/03/08 01:55:44;;;;;;;7.88;6.32;;;0.70;99.90;;;;;;2150119;66;20211;-67
2022/03/08 01:58:26;;;;;;;9.95;5.35;;;0.70;99.90;;;;;;2116722;67;20332;-67
2022/03/08 02:01:08;;;;;;;8.68;5.60;;;0.60;99.90;;;;;;2128171;67;20397;-67
2022/03/08 02:03:54;;;;;;;7.57;5.60;;;0.60;99.90;;;;;;2120098;67;20325;-67
2022/03/08 02:06:40;;;;;;;8.57;5.75;;;0.60;99.90;;;;;;2112157;67;20170;-68
2022/03/08 02:09:22;;;;;;;9.80;6.25;;;0.60;99.90;;;;;;2127485;67;20340;-66
2022/03/08 02:12:07;;;;;;;9.60;5.10;;;0.50;99.90;;;;;;2128133;67;20243;-67
2022/03/08 02:14:53;;;;;;;12.25;6.80;;;0.60;99.90;;;;;;2128745;67;20602;-65
2022/03/08 02:17:35;;;;;;;9.80;6.03;;;0.50;99.90;;;;;;2145424;66;20358;-67
2022/03/08 02:20:19;;;;;;;10.63;6.63;;;0.50;99.90;;;;;;2152276;66;20199;-67
2022/03/08 02:23:02;;;;;;;11.88;6.43;;;0.50;99.90;;;;;;2154565;66;20161;-67
2022/03/08 02:25:43;;;;;;;10.18;6.53;;;0.50;99.90;;;;;;2153541;66;20266;-66
2022/03/08 02:28:25;;;;;;;8.55;5.57;;;0.50;99.90;;;;;;2152565;66;20875;-68
2022/03/08 02:31:08;;;;;;;9.98;6.65;;;0.50;99.90;;;;;;2143392;66;20502;-68
2022/03/08 02:33:56;;;;;;;10.13;6.65;;;0.50;99.90;;;;;;2130080;66;20172;-68
2022/03/08 02:36:38;;;;;;;11.20;7.18;;;0.40;99.90;;;;;;2145810;66;20320;-66
2022/03/08 02:39:20;;;;;;;10.75;6.30;;;0.50;99.90;;;;;;2146843;66;20255;-66
2022/03/08 02:42:05;;;;;;;8.88;6.88;;;0.40;99.90;;;;;;2146511;66;20328;-67
2022/03/08 02:44:47;;;;;;;11.70;7.30;;;0.40;99.90;;;;;;2139497;66;20187;-67
2022/03/08 02:47:30;;;;;;;11.55;6.93;;;0.40;99.90;;;;;;2150876;66;20335;-65
2022/03/08 02:50:16;;;;;;;9.20;6.63;;;0.90;99.90;;;;;;2162163;66;20169;-67
2022/03/08 02:52:58;;;;;;;11.35;7.40;;;0.40;99.90;;;;;;2161642;66;20652;-66
2022/03/08 02:55:40;;;;;;;11.77;7.75;;;0.50;99.90;;;;;;2153486;66;20310;-66
2022/03/08 02:58:21;;;;;;;10.93;7.55;;;0.50;99.90;;;;;;2171421;65;20200;-67
2022/03/08 03:01:04;;;;;;;10.43;7.40;;;0.50;99.90;;;;;;2158879;66;20161;-67
2022/03/08 03:03:47;;;;;;;11.60;8.27;;;0.40;99.90;;;;;;2147465;66;20166;-66
2022/03/08 03:06:29;;;;;;;12.15;7.93;;;0.50;99.90;;;;;;2146644;66;20289;-65
2022/03/08 03:09:11;;;;;;;12.15;7.57;;;0.50;99.90;;;;;;2152671;66;20360;-66
2022/03/08 03:11:54;;;;;;;11.90;7.97;;;0.50;99.90;;;;;;2147463;66;20170;-67
2022/03/08 03:14:36;;;;;;;9.75;7.20;;;0.50;99.90;;;;;;2154518;66;20392;-66
2022/03/08 03:17:19;;;;;;;12.77;8.57;;;0.40;99.90;;;;;;2161845;66;20796;-65
2022/03/08 03:20:05;;;;;;;11.93;8.65;;;0.40;99.90;;;;;;2144436;66;20814;-67
2022/03/08 03:22:48;;;;;;;11.77;8.30;;;0.40;99.90;;;;;;2138159;66;20208;-68
2022/03/08 03:25:29;;;;;;;14.18;8.50;;;0.40;99.90;;;;;;2150185;66;20302;-67
2022/03/08 03:28:12;;;;;;;9.82;7.97;;;0.40;99.90;;;;;;2152432;66;20209;-67
2022/03/08 03:30:56;;;;;;;11.63;7.75;;;0.40;99.90;;;;;;2146495;66;20255;-67
2022/03/08 03:33:37;;;;;;;10.57;7.80;;;0.30;99.90;;;;;;2152610;66;20241;-68
2022/03/08 03:36:19;;;;;;;9.88;6.70;;;0.30;99.90;;;;;;2154837;66;20562;-68
2022/03/08 03:39:05;;;;;;;11.20;8.30;;;0.30;99.90;;;;;;2166113;66;20758;-67
2022/03/08 03:41:47;;;;;;;10.93;7.78;;;0.30;99.90;;;;;;2151715;66;20299;-67
2022/03/08 03:44:29;;;;;;;12.68;8.30;;;0.20;99.90;;;;;;2146274;66;20307;-67
2022/03/08 03:47:11;;;;;;;13.05;8.65;;;0.30;99.90;;;;;;2134406;67;20263;-65
2022/03/08 03:49:53;;;;;;;15.10;9.63;;;0.20;99.90;;;;;;2137105;66;20171;-66
2022/03/08 03:52:35;;;;;;;16.15;8.93;;;0.20;99.90;;;;;;2140351;66;20344;-67
2022/03/08 03:55:17;;;;;;;17.85;9.48;;;0.10;99.90;;;;;;2146269;66;20298;-67
2022/03/08 03:57:59;;;;;;;15.18;9.13;;;0.20;99.90;;;;;;2136681;67;20234;-67
2022/03/08 04:00:40;;;;;;;13.70;9.07;;;0.20;99.90;;;;;;2140963;66;20179;-67
2022/03/08 04:03:24;;;;;;;14.90;9.43;;;0.20;99.90;;;;;;2126871;67;20320;-66
2022/03/08 04:06:09;;;;;;;10.80;8.90;;;0.20;99.90;;;;;;2132224;67;20235;-65
2022/03/08 04:09:10;;;;;;;;;;;0.50;99.90;;;;;;2118585;67;20196;-67
2022/03/08 04:11:54;;;;;;;11.65;8.85;;;0.20;99.90;;;;;;2117692;67;20320;-66
2022/03/08 04:14:36;;;;;;;13.88;8.57;;;0.20;99.90;;;;;;2123443;67;20421;-70
2022/03/08 04:17:18;;;;;;;14.32;9.10;;;0.20;99.90;;;;;;2118421;67;20343;-67
2022/03/08 04:19:59;;;;;;;13.88;9.60;;;0.40;99.90;;;;;;2118781;67;20275;-67
2022/03/08 04:22:45;;;;;;;14.60;9.77;;;0.20;99.90;;;;;;2132181;66;20582;-67
2022/03/08 04:25:29;;;;;;;13.68;9.32;;;0.20;99.90;;;;;;2136970;66;20399;-66
2022/03/08 04:28:11;;;;;;;13.75;9.27;;;0.10;99.90;;;;;;2134896;67;20239;-67
2022/03/08 04:30:53;;;;;;;13.63;8.23;;;0.40;99.90;;;;;;2131841;67;20249;-67
2022/03/08 04:33:35;;;;;;;12.27;9.27;;;0.10;99.90;;;;;;2137857;67;20527;-66
2022/03/08 04:36:17;;;;;;;13.85;9.35;;;0.20;99.90;;;;;;2131738;67;20213;-67
2022/03/08 04:38:59;;;;;;;15.02;9.77;;;0.10;99.90;;;;;;2124939;67;20320;-67
2022/03/08 04:41:41;;;;;;;11.73;9.35;;;0.20;99.90;;;;;;2129044;67;20616;-66
2022/03/08 04:44:22;;;;;;;12.55;10.23;;;0.10;99.90;;;;;;2148620;66;20181;-67
2022/03/08 04:47:04;;;;;;;16.75;9.63;;;0.10;99.90;;;;;;2153520;66;20177;-67
2022/03/08 04:49:46;;;;;;;17.85;11.10;;;0.10;99.90;;;;;;2144594;66;20217;-66
2022/03/08 04:52:28;;;;;;;15.70;10.60;;;0.10;99.90;;;;;;2136371;66;20255;-67
2022/03/08 04:55:11;;;;;;;15.50;10.80;;;0.10;99.90;;;;;;2138878;66;20183;-67
2022/03/08 04:57:53;;;;;;;14.60;9.20;;;0.10;99.90;;;;;;2138446;66;20452;-66
2022/03/08 05:00:37;;;;;;;16.17;10.85;;;0.10;99.90;;;;;;2144163;66;20174;-67
2022/03/08 05:03:21;;;;;;;14.80;9.55;;;0.10;99.90;;;;;;2145550;66;20182;-66
2022/03/08 05:06:04;;;;;;;14.45;9.88;;;0.10;99.90;;;;;;2131740;67;20337;-65
2022/03/08 05:08:46;;;;;;;14.65;9.60;;;0.00;99.90;;;;;;2117441;67;20181;-67
2022/03/08 05:11:31;;;;;;;17.42;10.73;;;0.10;99.90;;;;;;2103634;67;20314;-65
2022/03/08 05:14:14;;;;;;;15.50;9.85;;;0.00;99.90;;;;;;2111295;67;20218;-68
2022/03/08 05:16:58;;;;;;;;;;;0.00;99.90;;;;;;2131978;67;20398;-68
2022/03/08 05:19:44;;;;;;;16.25;10.65;;;0.00;99.90;;;;;;2112709;67;20161;-67
2022/03/08 05:22:28;;;;;;;20.20;9.93;;;0.00;99.90;;;;;;2111996;67;20206;-67
2022/03/08 05:25:10;;;;;;;17.10;11.45;;;0.00;99.90;;;;;;2115516;67;20244;-67
2022/03/08 05:27:52;;;;;;;16.58;10.73;;;0.00;99.90;;;;;;2114102;67;20200;-67
2022/03/08 05:30:38;;;;;;;15.30;10.38;;;0.00;99.90;;;;;;2119219;67;20772;-66
2022/03/08 05:33:22;;;;;;;15.90;10.73;;;0.00;99.90;;;;;;2136850;67;20296;-66
2022/03/08 05:36:07;;;;;;;18.70;11.50;;;0.00;99.90;;;;;;2118990;67;20543;-67
2022/03/08 05:38:49;;;;;;;15.07;10.40;;;-0.10;99.90;;;;;;2125909;67;20214;-67
2022/03/08 05:41:31;;;;;;;16.17;10.05;;;-0.10;99.90;;;;;;2125654;67;20685;-67
2022/03/08 05:44:13;;;;;;;18.27;11.23;;;-0.10;99.90;;;;;;2116164;67;20192;-68
2022/03/08 05:46:56;;;;;;;20.02;11.55;;;-0.20;99.90;;;;;;2139000;66;20595;-68
2022/03/08 05:49:40;;;;;;;21.60;12.68;;;-0.20;99.90;;;;;;2133121;67;20364;-67
2022/03/08 05:52:21;;;;;;;17.85;11.35;;;-0.20;99.90;;;;;;2132783;67;20742;-67
2022/03/08 05:55:04;;;;;;;17.17;11.48;;;0.00;99.90;;;;;;2127592;67;20329;-67
2022/03/08 05:57:46;;;;;;;17.15;11.20;;;-0.20;99.90;;;;;;2129917;67;20321;-67
2022/03/08 06:00:29;;;;;;;17.35;11.45;;;-0.20;99.90;;;;;;2156880;66;20736;-67
2022/03/08 06:03:10;;;;;;;17.25;10.88;;;-0.20;99.90;;;;;;2177950;65;20315;-66
2022/03/08 06:05:52;;;;;;;20.95;11.20;;;-0.30;99.90;;;;;;2188878;65;20190;-67
2022/03/08 06:08:35;;;;;;;16.50;11.40;;;-0.30;99.90;;;;;;2183649;65;20274;-66
2022/03/08 06:11:20;;;;;;;16.63;10.88;;;-0.30;99.90;;;;;;2174400;65;20167;-69
2022/03/08 06:14:05;;;;;;;16.27;11.15;;;-0.30;99.90;;;;;;2169836;65;20473;-67
2022/03/08 06:16:47;;;;;;;17.70;11.65;;;-0.30;99.90;;;;;;2186397;65;20202;-66
2022/03/08 06:19:32;;;;;;;17.63;11.75;;;0.40;99.90;;;;;;2184947;65;20220;-67
2022/03/08 06:22:14;;;;;;;17.48;11.50;;;-0.30;99.90;;;;;;2146342;66;20347;-67
2022/03/08 06:24:56;;;;;;;17.45;11.68;;;-0.40;99.90;;;;;;2159873;66;20358;-67
2022/03/08 06:27:39;;;;;;;19.23;12.35;;;-0.40;99.90;;;;;;2161437;66;20431;-67
2022/03/08 06:30:21;;;;;;;17.33;11.48;;;-0.40;99.90;;;;;;2153953;66;20194;-67
2022/03/08 06:33:04;;;;;;;16.92;11.10;;;-0.40;99.90;;;;;;2161474;66;20173;-68
2022/03/08 06:35:48;;;;;;;;;;;-0.40;99.90;;;;;;2161831;66;20341;-67
2022/03/08 06:38:31;;;;;;;17.55;11.63;;;-0.40;99.90;;;;;;2160267;66;20186;-65
2022/03/08 06:41:13;;;;;;;18.88;11.40;;;-0.40;99.90;;;;;;2153685;66;20413;-68
2022/03/08 06:43:55;;;;;;;17.73;11.52;;;-0.30;99.90;;;;;;2152174;66;20309;-69
2022/03/08 06:46:41;;;;;;;18.70;11.95;;;-0.30;99.90;;;;;;2146809;66;20198;-67
2022/03/08 06:49:23;;;;;;;18.83;11.32;;;-0.30;99.90;;;;;;2149876;66;20303;-67
2022/03/08 06:52:10;;;;;;;18.85;12.02;;;-0.20;99.90;;;;;;2154071;66;20197;-68
2022/03/08 06:54:56;;;;;;;17.38;10.73;;;-0.20;99.90;;;;;;2153289;66;20726;-67
2022/03/08 06:57:40;;;;;;;13.80;10.82;;;-0.10;99.90;;;;;;2158306;66;20173;-67
2022/03/08 07:00:21;;;;;;;16.35;10.18;;;0.00;99.90;;;;;;2140979;66;20259;-66
2022/03/08 07:03:05;;;;;;;17.30;10.50;;;0.00;99.90;;;;;;2144202;66;20813;-67
2022/03/08 07:05:49;;;;;;;;;;;0.10;99.90;;;;;;2159838;65;20354;-67
2022/03/08 07:08:32;;;;;;;17.67;10.95;;;0.80;99.90;;;;;;2159825;66;20203;-66
2022/03/08 07:11:16;;;;;;;;;;;0.20;99.90;;;;;;2175732;65;20204;-67
2022/03/08 07:13:59;;;;;;;17.58;10.13;;;0.20;99.90;;;;;;2167238;65;20714;-66
2022/03/08 07:16:40;;;;;;;15.98;9.95;;;0.30;99.90;;;;;;2152996;66;20169;-67
2022/03/08 07:19:23;;;;;;;16.45;10.38;;;0.30;99.90;;;;;;2138914;67;20297;-67
2022/03/08 07:22:09;;;;;;;15.00;9.93;;;0.50;99.90;;;;;;2132142;67;20203;-67
2022/03/08 07:24:50;;;;;;;15.18;9.88;;;0.50;99.90;;;;;;2132130;67;20671;-66
2022/03/08 07:27:32;;;;;;;18.52;11.07;;;0.60;99.90;;;;;;2125001;67;20338;-66
2022/03/08 07:30:16;;;;;;;16.13;9.85;;;0.60;99.90;;;;;;2120859;67;20256;-67
2022/03/08 07:32:58;;;;;;;13.52;9.32;;;0.70;99.90;;;;;;2131349;67;20215;-67
2022/03/08 07:35:43;;;;;;;15.00;9.85;;;0.80;99.90;;;;;;2139362;66;20194;-67
2022/03/08 07:38:26;;;;;;;15.68;9.88;;;0.80;99.90;;;;;;2138667;66;20680;-67
2022/03/08 07:41:10;;;;;;;16.10;9.90;;;0.90;99.90;;;;;;2135926;67;20235;-66
2022/03/08 07:43:51;;;;;;;18.95;11.07;;;1.00;99.90;;;;;;2133513;66;20244;-65
2022/03/08 07:46:33;;;;;;;15.75;9.80;;;1.00;99.90;;;;;;2139058;66;20676;-67
2022/03/08 07:49:14;;;;;;;17.45;10.30;;;1.10;99.90;;;;;;2139158;66;20258;-67
2022/03/08 07:51:58;;;;;;;13.25;9.25;;;1.20;99.90;;;;;;2138872;67;20210;-67
2022/03/08 07:54:39;;;;;;;13.32;8.95;;;1.20;99.90;;;;;;2145436;66;20259;-67
2022/03/08 07:57:21;;;;;;;16.08;9.35;;;1.30;99.90;;;;;;2139232;67;20182;-67
2022/03/08 08:00:12;;;;;;;14.63;9.23;;;1.40;99.90;;;;;;2124728;67;20340;-69
2022/03/08 08:02:55;;;;;;;15.05;9.77;;;1.50;99.90;;;;;;2128381;67;20164;-68
2022/03/08 08:05:40;;;;;;;15.07;9.55;;;1.50;99.90;;;;;;2138588;66;20196;-68
2022/03/08 08:08:24;;;;;;;17.52;10.40;;;1.60;99.90;;;;;;2143596;66;20706;-68
2022/03/08 08:11:06;;;;;;;12.52;9.35;;;1.70;99.90;;;;;;2152896;66;20248;-67
2022/03/08 08:13:49;;;;;;;14.07;9.75;;;1.80;99.90;;;;;;2138760;66;20375;-68
2022/03/08 08:16:31;;;;;;;16.05;9.80;;;1.80;99.90;;;;;;2149342;66;20231;-69
2022/03/08 08:19:13;;;;;;;11.77;8.88;;;1.90;99.90;;;;;;2157436;66;20385;-67
2022/03/08 08:21:57;;;;;;;13.00;8.85;;;2.00;99.90;;;;;;2168387;65;20325;-68
2022/03/08 08:24:43;;;;;;;16.02;10.10;;;2.00;99.90;;;;;;2167765;66;20391;-68
2022/03/08 08:27:28;;;;;;;;;;;2.20;99.90;;;;;;2159458;66;20290;-68
2022/03/08 08:30:13;;;;;;;14.43;8.90;;;2.30;99.90;;;;;;2158780;66;20125;-68
2022/03/08 08:32:57;;;;;;;17.42;9.45;;;2.40;99.90;;;;;;2140300;66;20495;-67
2022/03/08 08:35:39;;;;;;;13.82;9.40;;;2.70;99.90;;;;;;2138609;67;20409;-68
2022/03/08 08:38:22;;;;;;;11.60;8.52;;;2.60;99.90;;;;;;2131289;67;20547;-68
2022/03/08 08:41:06;;;;;;;13.68;8.70;;;2.70;99.90;;;;;;2138641;67;20182;-66
2022/03/08 08:43:49;;;;;;;11.07;8.45;;;2.70;99.90;;;;;;2125912;67;20219;-67
2022/03/08 08:46:31;;;;;;;11.00;8.48;;;2.90;99.90;;;;;;2135156;67;20688;-68
2022/03/08 08:49:13;;;;;;;11.00;7.75;;;3.00;99.90;;;;;;2132078;67;20374;-68
2022/03/08 08:51:55;;;;;;;13.07;8.30;;;3.10;99.90;;;;;;2124542;67;20184;-67
2022/03/08 08:54:37;;;;;;;11.75;8.85;;;3.40;99.90;;;;;;2112196;67;20295;-67
2022/03/08 08:57:22;;;;;;;12.43;8.52;;;3.40;99.90;;;;;;2134733;66;20292;-67
2022/03/08 09:00:06;;;;;;;12.70;8.40;;;3.40;99.90;;;;;;2146692;66;20290;-68
2022/03/08 09:02:48;;;;;;;11.50;8.05;;;3.50;99.90;;;;;;2139736;66;20202;-68
2022/03/08 09:05:30;;;;;;;11.43;8.50;;;3.60;99.90;;;;;;2125456;67;20184;-70
2022/03/08 09:08:16;;;;;;;9.98;7.70;;;3.60;99.90;;;;;;2132421;67;20359;-69
2022/03/08 09:10:58;;;;;;;9.70;7.63;;;3.80;99.90;;;;;;2138543;67;20385;-67
2022/03/08 09:13:43;;;;;;;9.82;8.20;;;3.90;99.90;;;;;;2146951;66;20339;-67
2022/03/08 09:16:25;;;;;;;14.57;8.20;;;4.10;99.90;;;;;;2139941;67;20734;-68
2022/03/08 09:19:07;;;;;;;11.18;7.55;;;4.00;99.90;;;;;;2139907;67;20290;-68
2022/03/08 09:21:51;;;;;;;13.70;7.80;;;4.10;99.90;;;;;;2134401;66;20199;-69
2022/03/08 09:24:37;;;;;;;11.85;7.18;;;4.20;99.90;;;;;;2134305;67;20752;-68
2022/03/08 09:27:19;;;;;;;10.55;7.53;;;4.30;99.90;;;;;;2120522;67;20688;-68
2022/03/08 09:30:06;;;;;;;11.23;7.97;;;4.40;99.90;;;;;;2139856;66;20328;-68
2022/03/08 09:32:47;;;;;;;12.52;7.53;;;4.40;99.90;;;;;;2132296;67;20361;-69
2022/03/08 09:35:31;;;;;;;10.10;7.15;;;4.50;99.90;;;;;;2134463;67;20246;-69
2022/03/08 09:38:15;;;;;;;11.95;8.48;;;4.60;99.90;;;;;;2135069;66;20344;-70
2022/03/08 09:40:58;;;;;;;11.50;8.43;;;4.70;99.90;;;;;;2146346;66;20317;-69
2022/03/08 09:43:39;;;;;;;9.77;6.47;;;4.80;99.90;;;;;;2156567;66;20196;-67
2022/03/08 09:46:21;;;;;;;12.27;8.10;;;4.90;99.90;;;;;;2160956;66;20334;-67
2022/03/08 09:49:03;;;;;;;13.75;8.30;;;4.90;99.90;;;;;;2160393;66;20381;-66
2022/03/08 09:51:46;;;;;;;10.40;7.15;;;5.00;99.90;;;;;;2146710;66;20492;-65
2022/03/08 09:54:29;;;;;;;10.60;7.05;;;5.10;99.90;;;;;;2146468;66;20386;-67
2022/03/08 09:57:18;;;;;;;8.18;6.07;;;5.30;99.90;;;;;;2146644;66;20724;-67
2022/03/08 10:00:00;;;;;;;12.68;7.28;;;5.30;99.90;;;;;;2153959;66;20205;-66
2022/03/08 10:02:45;;;;;;;11.98;6.18;;;5.40;99.90;;;;;;2153578;66;20663;-69
2022/03/08 10:05:37;;;;;;;12.52;7.28;;;5.50;99.90;;;;;;2141570;66;20248;-67
2022/03/08 10:08:21;;;;;;;8.82;5.93;;;5.60;99.90;;;;;;2140262;67;20208;-69
2022/03/08 10:11:12;;;;;;;11.15;6.35;;;5.70;99.90;;;;;;2139469;67;20329;-69
2022/03/08 10:13:55;;;;;;;13.20;7.72;;;5.80;99.90;;;;;;2131656;67;20544;-68
2022/03/08 10:16:43;;;;;;;14.75;7.22;;;6.00;99.90;;;;;;2120277;67;20401;-70
2022/03/08 10:19:24;;;;;;;8.15;6.45;;;6.10;99.90;;;;;;2117809;67;20205;-68
2022/03/08 10:22:29;;;;;;;10.68;6.10;;;6.20;99.90;;;;;;2120737;67;20373;-69
2022/03/08 10:25:11;;;;;;;8.70;6.53;;;6.30;99.40;;;;;;2144151;66;20236;-69
2022/03/08 10:27:55;;;;;;;12.65;6.78;;;6.40;99.80;;;;;;2143006;66;20350;-69
2022/03/08 10:30:53;;;;;;;11.52;6.55;;;6.50;98.80;;;;;;2132182;67;20230;-67
2022/03/08 10:33:40;;;;;;;8.00;5.68;;;6.60;95.30;;;;;;2140587;66;20358;-67
2022/03/08 10:36:26;;;;;;;7.93;5.80;;;7.00;94.40;;;;;;2146417;66;20356;-67
2022/03/08 10:39:09;;;;;;;8.18;5.72;;;6.90;92.60;;;;;;2143347;66;20215;-67
2022/03/08 10:41:56;;;;;;;;;;;7.10;91.90;;;;;;2139464;67;20190;-67
2022/03/08 10:44:45;;;;;;;8.20;5.50;;;7.20;86.10;;;;;;2144225;66;20709;-68
2022/03/08 10:47:27;;;;;;;6.82;5.35;;;7.60;91.40;;;;;;2121997;67;20883;-68
2022/03/08 10:50:13;;;;;;;11.05;5.55;;;7.90;90.00;;;;;;2124908;67;20359;-68
2022/03/08 10:52:57;;;;;;;7.13;5.70;;;8.20;85.90;;;;;;2132067;67;20201;-67
2022/03/08 10:55:47;;;;;;;8.45;6.07;;;8.50;88.10;;;;;;2124498;67;20317;-68
2022/03/08 10:58:28;;;;;;;6.85;5.40;;;8.80;87.20;;;;;;2119478;67;20184;-69
2022/03/08 11:01:12;;;;;;;8.60;5.53;;;9.20;87.60;;;;;;2117463;67;20214;-69
2022/03/08 11:03:58;;;;;;;8.63;5.45;;;9.60;83.10;;;;;;2103886;67;20396;-70
2022/03/08 11:06:48;;;;;;;6.57;5.45;;;9.90;78.00;;;;;;2106842;67;20334;-67
2022/03/08 11:09:32;;;;;;;5.55;4.88;;;10.20;77.40;;;;;;2123212;67;20208;-67
2022/03/08 11:12:15;;;;;;;5.97;4.73;;;10.60;74.10;;;;;;2118245;67;20527;-68
2022/03/08 11:14:58;;;;;;;6.13;4.15;;;11.00;69.80;;;;;;2132185;67;20879;-66
2022/03/08 11:17:43;;;;;;;8.23;5.07;;;11.40;66.30;;;;;;2131618;67;20363;-68
2022/03/08 11:20:26;;;;;;;;;;;11.80;63.00;;;;;;2118310;67;20252;-68
2022/03/08 11:23:11;;;;;;;9.07;4.63;;;12.10;64.10;;;;;;2104798;67;20114;-69
2022/03/08 11:25:53;;;;;;;6.15;4.45;;;12.40;62.50;;;;;;2113158;67;20280;-68
2022/03/08 11:28:35;;;;;;;5.95;4.22;;;12.90;60.00;;;;;;2132420;67;20339;-68
2022/03/08 11:31:23;;;;;;;3.97;3.58;;;13.20;56.50;;;;;;2145533;66;20209;-69
2022/03/08 11:34:33;;;;;;;4.70;4.22;;;13.50;55.30;;;;;;2131666;67;20276;-69
2022/03/08 11:37:21;;;;;;;5.22;4.40;;;13.80;55.00;;;;;;2135838;66;20275;-68
2022/03/08 11:40:13;;;;;;;6.88;4.55;;;14.20;51.80;;;;;;2144967;66;20725;-68
2022/03/08 11:43:01;;;;;;;5.35;4.25;;;14.50;51.90;;;;;;1917110;66;15133407;-67
2022/03/08 11:45:48;;;;;;;6.20;4.50;;;14.80;51.90;;;;;;2151860;66;20199;-70
2022/03/08 11:48:31;;;;;;;4.65;3.70;;;15.10;50.90;;;;;;2153053;66;20645;-72
2022/03/08 11:51:13;;;;;;;11.77;4.68;;;15.30;48.80;;;;;;2155946;66;20451;-72
2022/03/08 11:54:00;;;;;;;8.48;4.55;;;15.40;48.30;;;;;;2160869;66;20276;-71
2022/03/08 11:56:51;;;;;;;5.82;4.32;;;15.60;48.60;;;;;;2153675;66;20294;-74
2022/03/08 11:59:33;;;;;;;6.85;4.20;;;16.00;48.40;;;;;;2148183;66;20197;-70
2022/03/08 12:02:19;;;;;;;4.57;4.00;;;16.30;46.60;;;;;;2156390;66;20718;-68
2022/03/08 12:05:01;;;;;;;7.47;3.90;;;16.50;46.80;;;;;;2149211;66;20442;-67
2022/03/08 12:07:45;;;;;;;5.03;3.80;;;16.80;45.80;;;;;;2152971;66;21767;-69
2022/03/08 12:10:29;;;;;;;4.45;3.88;;;17.00;45.00;;;;;;2145751;66;20397;-69
2022/03/08 12:13:15;;;;;;;7.32;4.43;;;17.20;45.00;;;;;;2139433;66;20568;-68
2022/03/08 12:16:11;;;;;;;5.72;4.20;;;17.60;44.50;;;;;;2138442;67;20748;-68
2022/03/08 12:18:56;;;;;;;4.97;4.30;;;18.00;44.20;;;;;;2131466;67;20748;-69
2022/03/08 12:21:44;;;;;;;6.88;4.28;;;18.10;42.70;;;;;;2126005;67;20415;-68
2022/03/08 12:24:39;;;;;;;7.15;4.32;;;18.30;42.50;;;;;;2138574;66;20755;-70
2022/03/08 12:27:22;;;;;;;4.45;3.70;;;18.70;41.50;;;;;;2138308;67;20683;-70
2022/03/08 12:30:07;;;;;;;7.28;3.55;;;18.90;41.90;;;;;;2136259;66;20891;-70
2022/03/08 12:32:56;;;;;;;4.03;3.63;;;19.30;41.50;;;;;;2133361;67;20206;-68
2022/03/08 12:35:52;;;;;;;6.53;3.85;;;19.60;40.80;;;;;;2112243;67;20289;-71
2022/03/08 12:38:41;;;;;;;4.70;3.58;;;19.90;39.50;;;;;;2117797;67;20212;-73
2022/03/08 12:41:27;;;;;;;5.43;3.50;;;20.10;39.10;;;;;;2118945;67;20206;-72
2022/03/08 12:44:09;;;;;;;4.93;4.07;;;20.60;38.50;;;;;;2126197;67;20243;-74
2022/03/08 12:46:51;;;;;;;5.28;4.13;;;20.80;38.10;;;;;;2134697;67;20227;-76
2022/03/08 12:49:34;;;;;;;5.97;3.97;;;21.00;37.70;;;;;;2126690;67;20472;-72
2022/03/08 12:52:18;;;;;;;5.55;3.85;;;21.20;37.60;;;;;;2114943;67;20321;-72
2022/03/08 12:55:01;;;;;;;4.50;4.10;;;21.60;37.50;;;;;;2125524;67;20740;-72
2022/03/08 12:57:51;;;;;;;4.55;4.15;;;21.90;37.40;;;;;;2132702;67;20262;-71
2022/03/08 13:00:53;;;;;;;4.25;3.85;;;22.10;36.40;;;;;;2134172;67;20393;-69
2022/03/08 13:03:46;;;;;;;4.88;3.78;;;22.20;36.40;;;;;;2137749;66;20822;-69
2022/03/08 13:06:30;;;;;;;3.80;3.40;;;22.70;36.10;;;;;;2154120;66;20625;-70
2022/03/08 13:09:15;;;;;;;4.95;4.35;;;23.10;35.40;;;;;;2137244;67;20418;-69
2022/03/08 13:11:58;;;;;;;5.25;3.70;;;23.20;34.70;;;;;;2131918;67;20726;-70
2022/03/08 13:14:40;;;;;;;3.50;3.20;;;23.50;34.30;;;;;;2130352;67;20320;-70
2022/03/08 13:17:30;;;;;;;6.20;3.80;;;23.80;33.80;;;;;;2125607;67;20279;-70
2022/03/08 13:20:31;;;;;;;4.25;3.65;;;23.90;32.90;;;;;;2118903;67;20284;-68
2022/03/08 13:23:18;;;;;;;8.00;4.20;;;24.10;33.40;;;;;;2129108;67;20293;-72
2022/03/08 13:26:05;;;;;;;4.88;4.13;;;24.10;33.50;;;;;;2136940;67;20225;-69
2022/03/08 13:28:47;;;;;;;6.10;3.45;;;24.40;32.80;;;;;;2137265;66;20238;-71
2022/03/08 13:31:28;;;;;;;4.72;3.63;;;24.40;33.10;;;;;;2136888;67;20183;-70
2022/03/08 13:34:13;;;;;;;4.75;3.92;;;24.30;32.80;;;;;;2151650;66;20275;-72
2022/03/08 13:37:01;;;;;;;4.40;3.13;;;24.40;32.90;;;;;;2156721;66;20272;-70
2022/03/08 13:39:46;;;;;;;3.72;3.38;;;24.60;33.20;;;;;;2154164;66;20235;-72
2022/03/08 13:42:47;;;;;;;4.18;3.40;;;24.90;33.00;;;;;;2153752;66;20323;-68
2022/03/08 13:45:30;;;;;;;4.95;3.72;;;25.60;33.30;;;;;;2157968;66;20360;-68
2022/03/08 13:48:16;;;;;;;5.25;4.05;;;25.70;32.00;;;;;;2156633;66;20318;-69
2022/03/08 13:51:08;;;;;;;5.80;4.00;;;25.80;31.80;;;;;;2163074;65;20236;-69
2022/03/08 13:53:52;;;;;;;5.10;4.38;;;25.70;33.00;;;;;;2151497;66;20196;-70
2022/03/08 13:56:55;;;;;;;4.47;4.05;;;25.70;31.90;;;;;;2169246;65;20845;-70
2022/03/08 13:59:41;;;;;;;5.75;4.00;;;25.60;31.90;;;;;;2144318;66;20327;-70
2022/03/08 14:02:24;;;;;;;5.18;4.50;;;25.50;31.60;;;;;;2139864;66;20391;-69
2022/03/08 14:05:11;;;;;;;6.90;4.80;;;25.60;31.70;;;;;;2132571;67;20227;-68
2022/03/08 14:08:02;;;;;;;5.57;4.28;;;25.60;31.50;;;;;;2131874;67;20195;-69
2022/03/08 14:11:13;;;;;;;4.43;3.88;;;25.80;31.50;;;;;;2118490;67;20393;-68
2022/03/08 14:14:00;;;;;;;5.15;3.80;;;25.70;31.30;;;;;;2099586;68;20195;-68
2022/03/08 14:16:46;;;;;;;4.57;3.92;;;25.50;31.10;;;;;;2104576;68;20347;-68